AAL56 KMIA-EGLL
Flight info
| Callsign | AAL56 |
|---|---|
| Flight time | N/A |
| Altitude | 35000 |
| Route | FOLZZ3 ALYRA DCT CARPX AR3 JAZZI DCT SAGGY DCT CLAPY DCT ZJAAY Q167 RIFLE Q439 FOXWD DCT TOPPS N735B LOMSI/M084F350 DCT 55N050W 56N040W 57N030W 57N020W DCT PIKIL/N0488F350 DCT SOVED DCT REVNU DCT BOFUM Q37 MALUD Q38 NUGRA |
| Aircraft | B772/H-SDE2E3FGHIJ5LORVWXY/LB1D1 |
Departure
| Time | 2026-05-08 01:33 |
|---|---|
| Airport | Miami International Airport (KMIA) |
Arrival
| Time | N/A |
|---|---|
| Airport | London Heathrow Airport (EGLL) |
| Time | Latitude | Longitude | Altitude | Speed | Heading |
|---|---|---|---|---|---|
| 2026-05-08 00:47 | 25.79795 | -80.27655 | 24 ft | 0 kts | 177° |
| 2026-05-08 01:19 | 25.79816 | -80.27656 | 24 ft | 3 kts | 177° |
| 2026-05-08 01:19 | 25.79839 | -80.27658 | 24 ft | 3 kts | 177° |
| 2026-05-08 01:20 | 25.79861 | -80.27659 | 23 ft | 2 kts | 177° |
| 2026-05-08 01:20 | 25.79881 | -80.27657 | 25 ft | 3 kts | 214° |
| 2026-05-08 01:20 | 25.79892 | -80.27640 | 25 ft | 3 kts | 265° |
| 2026-05-08 01:20 | 25.79893 | -80.27617 | 26 ft | 1 kts | 268° |
| 2026-05-08 01:21 | 25.79893 | -80.27612 | 26 ft | 1 kts | 268° |
| 2026-05-08 01:24 | 25.79893 | -80.27615 | 21 ft | 1 kts | 268° |
| 2026-05-08 01:24 | 25.79892 | -80.27631 | 21 ft | 3 kts | 268° |
| 2026-05-08 01:24 | 25.79891 | -80.27663 | 22 ft | 5 kts | 268° |
| 2026-05-08 01:25 | 25.79891 | -80.27710 | 20 ft | 6 kts | 274° |
| 2026-05-08 01:25 | 25.79916 | -80.27748 | 20 ft | 7 kts | 333° |
| 2026-05-08 01:25 | 25.79960 | -80.27767 | 20 ft | 8 kts | 321° |
| 2026-05-08 01:25 | 25.79977 | -80.27825 | 19 ft | 8 kts | 265° |
| 2026-05-08 01:26 | 25.79979 | -80.27886 | 20 ft | 9 kts | 308° |
| 2026-05-08 01:26 | 25.80031 | -80.27916 | 16 ft | 9 kts | 315° |
| 2026-05-08 01:26 | 25.80047 | -80.27978 | 15 ft | 9 kts | 270° |
| 2026-05-08 01:26 | 25.80044 | -80.28046 | 16 ft | 9 kts | 267° |
| 2026-05-08 01:27 | 25.80041 | -80.28121 | 17 ft | 10 kts | 267° |
| 2026-05-08 01:27 | 25.80037 | -80.28205 | 19 ft | 12 kts | 267° |
| 2026-05-08 01:27 | 25.80033 | -80.28307 | 19 ft | 15 kts | 268° |
| 2026-05-08 01:27 | 25.80028 | -80.28439 | 19 ft | 19 kts | 268° |
| 2026-05-08 01:28 | 25.80024 | -80.28585 | 25 ft | 19 kts | 268° |
| 2026-05-08 01:28 | 25.80018 | -80.28731 | 27 ft | 19 kts | 267° |
| 2026-05-08 01:28 | 25.80011 | -80.28877 | 29 ft | 19 kts | 267° |
| 2026-05-08 01:28 | 25.80005 | -80.29023 | 28 ft | 19 kts | 267° |
| 2026-05-08 01:29 | 25.79999 | -80.29169 | 26 ft | 19 kts | 267° |
| 2026-05-08 01:29 | 25.79993 | -80.29315 | 23 ft | 19 kts | 267° |
| 2026-05-08 01:29 | 25.79986 | -80.29461 | 19 ft | 19 kts | 267° |
| 2026-05-08 01:29 | 25.79983 | -80.29608 | 18 ft | 19 kts | 269° |
| 2026-05-08 01:30 | 25.79975 | -80.29754 | 18 ft | 19 kts | 266° |
| 2026-05-08 01:30 | 25.79969 | -80.29899 | 16 ft | 19 kts | 272° |
| 2026-05-08 01:30 | 25.79996 | -80.30040 | 16 ft | 19 kts | 286° |
| 2026-05-08 01:30 | 25.80019 | -80.30111 | 19 ft | 5 kts | 306° |
| 2026-05-08 01:31 | 25.80053 | -80.30128 | 19 ft | 5 kts | 2° |
| 2026-05-08 01:31 | 25.80068 | -80.30112 | 19 ft | 4 kts | 61° |
| 2026-05-08 01:31 | 25.80071 | -80.30094 | 18 ft | 0 kts | 82° |
| 2026-05-08 01:31 | 25.80072 | -80.30083 | 18 ft | 11 kts | 82° |
| 2026-05-08 01:32 | 25.80091 | -80.29736 | 18 ft | 79 kts | 88° |
| 2026-05-08 01:32 | 25.80121 | -80.28953 | 29 ft | 118 kts | 88° |
| 2026-05-08 01:32 | 25.80167 | -80.27815 | 30 ft | 175 kts | 85° |
| 2026-05-08 01:32 | 25.80242 | -80.26441 | 555 ft | 186 kts | 86° |
| 2026-05-08 01:33 | 25.80190 | -80.24937 | 787 ft | 207 kts | 113° |
| 2026-05-08 01:33 | 25.79441 | -80.23600 | 1376 ft | 201 kts | 127° |
| 2026-05-08 01:33 | 25.78703 | -80.22229 | 1779 ft | 219 kts | 121° |
| 2026-05-08 01:33 | 25.77982 | -80.20657 | 1816 ft | 237 kts | 118° |
| 2026-05-08 01:34 | 25.77220 | -80.18986 | 1999 ft | 251 kts | 117° |
| 2026-05-08 01:34 | 25.76385 | -80.17191 | 2080 ft | 271 kts | 120° |
| 2026-05-08 01:34 | 25.75473 | -80.15419 | 2732 ft | 265 kts | 120° |
| 2026-05-08 01:34 | 25.74582 | -80.13603 | 3154 ft | 270 kts | 116° |
| 2026-05-08 01:35 | 25.74132 | -80.11590 | 3465 ft | 275 kts | 86° |
| 2026-05-08 01:35 | 25.74678 | -80.09582 | 3849 ft | 275 kts | 55° |
| 2026-05-08 01:35 | 25.75860 | -80.07986 | 4333 ft | 270 kts | 46° |
| 2026-05-08 01:35 | 25.77107 | -80.06415 | 4855 ft | 271 kts | 46° |
| 2026-05-08 01:36 | 25.78349 | -80.04839 | 5343 ft | 273 kts | 47° |
| 2026-05-08 01:36 | 25.79605 | -80.03249 | 5800 ft | 276 kts | 47° |
| 2026-05-08 01:36 | 25.80875 | -80.01643 | 6252 ft | 278 kts | 48° |
| 2026-05-08 01:36 | 25.82157 | -80.00021 | 6705 ft | 281 kts | 49° |
| 2026-05-08 01:37 | 25.83447 | -79.98386 | 7138 ft | 282 kts | 49° |
| 2026-05-08 01:37 | 25.84745 | -79.96741 | 7572 ft | 284 kts | 49° |
| 2026-05-08 01:37 | 25.86052 | -79.95082 | 7997 ft | 286 kts | 49° |
| 2026-05-08 01:37 | 25.87365 | -79.93413 | 8433 ft | 288 kts | 49° |
| 2026-05-08 01:38 | 25.88691 | -79.91728 | 8844 ft | 290 kts | 49° |
| 2026-05-08 01:38 | 25.90022 | -79.90035 | 9259 ft | 292 kts | 49° |
| 2026-05-08 01:38 | 25.91365 | -79.88327 | 9664 ft | 296 kts | 49° |
| 2026-05-08 01:38 | 25.92724 | -79.86596 | 10031 ft | 298 kts | 49° |
| 2026-05-08 01:39 | 25.94105 | -79.84837 | 10232 ft | 309 kts | 49° |
| 2026-05-08 01:39 | 25.95534 | -79.83016 | 10340 ft | 323 kts | 49° |
| 2026-05-08 01:39 | 25.97044 | -79.81091 | 10457 ft | 338 kts | 49° |
| 2026-05-08 01:39 | 25.98622 | -79.79079 | 10559 ft | 353 kts | 49° |
| 2026-05-08 01:40 | 26.00275 | -79.76970 | 10700 ft | 369 kts | 49° |
| 2026-05-08 01:40 | 26.01988 | -79.74783 | 10935 ft | 380 kts | 48° |
| 2026-05-08 01:40 | 26.03745 | -79.72539 | 11318 ft | 388 kts | 48° |
| 2026-05-08 01:40 | 26.05525 | -79.70264 | 11833 ft | 391 kts | 49° |
| 2026-05-08 01:41 | 26.06709 | -79.68749 | 12221 ft | 393 kts | 48° |
| 2026-05-08 01:41 | 26.08512 | -79.66445 | 12794 ft | 397 kts | 48° |
| 2026-05-08 01:41 | 26.10333 | -79.64115 | 13309 ft | 401 kts | 47° |
| 2026-05-08 01:41 | 26.12102 | -79.61683 | 13869 ft | 405 kts | 52° |
| 2026-05-08 01:42 | 26.13739 | -79.59114 | 14397 ft | 409 kts | 54° |
| 2026-05-08 01:42 | 26.15340 | -79.56494 | 14948 ft | 411 kts | 54° |
| 2026-05-08 01:42 | 26.16957 | -79.53852 | 15487 ft | 414 kts | 54° |